createdAt,value
2024-01-16T00:01:43.729Z,81.53
2024-01-16T00:04:12.600Z,82.00
2024-01-16T00:06:42.864Z,82.48
2024-01-16T00:09:12.468Z,82.32
2024-01-16T00:11:42.254Z,82.41
2024-01-16T00:14:12.508Z,82.40
2024-01-16T00:16:44.106Z,82.28
2024-01-16T00:19:13.359Z,82.78
2024-01-16T00:21:42.800Z,81.81
2024-01-16T00:24:11.523Z,81.55
2024-01-16T00:26:40.765Z,82.47
2024-01-16T00:29:10.232Z,82.26
2024-01-16T00:31:40.746Z,81.36
2024-01-16T00:34:09.791Z,81.25
2024-01-16T00:36:38.853Z,82.08
2024-01-16T00:39:08.415Z,81.87
2024-01-16T00:41:37.610Z,82.07
2024-01-16T00:44:06.377Z,81.44
2024-01-16T00:46:35.422Z,82.03
2024-01-16T00:49:05.696Z,82.18
2024-01-16T00:51:34.772Z,81.03
2024-01-16T00:54:03.616Z,79.98
2024-01-16T00:56:34.492Z,80.33
2024-01-16T00:59:03.291Z,79.76
2024-01-16T01:01:32.283Z,78.42
2024-01-16T01:04:01.097Z,79.40
2024-01-16T01:06:31.545Z,78.53
2024-01-16T01:09:00.738Z,78.36
2024-01-16T01:11:29.763Z,78.37
2024-01-16T01:13:58.606Z,78.07
2024-01-16T01:16:27.711Z,79.05
2024-01-16T01:18:56.600Z,78.68
2024-01-16T01:21:25.765Z,79.02
2024-01-16T01:23:55.896Z,79.49
2024-01-16T01:26:25.114Z,79.00
2024-01-16T01:28:53.833Z,79.88
2024-01-16T01:31:22.870Z,80.24
2024-01-16T01:33:51.632Z,79.62
2024-01-16T01:36:20.833Z,80.05
2024-01-16T01:38:49.570Z,80.40
2024-01-16T01:41:20.004Z,80.18
2024-01-16T01:43:48.838Z,80.51
2024-01-16T01:46:19.742Z,80.41
2024-01-16T01:48:49.924Z,80.57
2024-01-16T01:51:20.913Z,81.25
2024-01-16T01:53:52.361Z,81.45
2024-01-16T01:56:23.247Z,81.30
2024-01-16T01:58:55.143Z,80.13
2024-01-16T02:01:24.895Z,80.93
2024-01-16T02:03:54.615Z,80.30
2024-01-16T02:06:23.693Z,79.01
2024-01-16T02:08:53.009Z,78.78
2024-01-16T02:11:23.549Z,77.30
2024-01-16T02:13:52.443Z,77.00
2024-01-16T02:16:22.089Z,76.34
2024-01-16T02:18:52.809Z,76.91
2024-01-16T02:21:23.278Z,77.59
2024-01-16T02:23:53.704Z,77.44
2024-01-16T02:26:22.967Z,75.96
2024-01-16T02:28:52.444Z,76.38
2024-01-16T02:31:21.593Z,76.32
2024-01-16T02:33:50.491Z,75.93
2024-01-16T02:36:19.556Z,76.45
2024-01-16T02:38:48.774Z,76.76
2024-01-16T02:41:19.476Z,78.21
2024-01-16T02:43:48.311Z,78.66
2024-01-16T02:46:17.354Z,79.97
2024-01-16T02:48:46.212Z,80.46
2024-01-16T02:51:16.902Z,80.69
2024-01-16T02:53:45.761Z,81.65
2024-01-16T02:56:15.048Z,82.09
2024-01-16T02:58:45.179Z,82.34
2024-01-16T03:01:14.876Z,81.47
2024-01-16T03:03:44.021Z,82.11
2024-01-16T03:06:23.212Z,82.75
2024-01-16T03:08:52.278Z,82.15
2024-01-16T03:11:21.406Z,82.31
2024-01-16T03:13:53.852Z,82.43
2024-01-16T03:16:23.415Z,83.50
2024-01-16T03:18:52.540Z,83.67
2024-01-16T03:21:21.752Z,82.61
2024-01-16T03:23:51.222Z,82.35
2024-01-16T03:26:20.471Z,83.02
2024-01-16T03:28:49.344Z,82.66
2024-01-16T03:31:22.512Z,83.31
2024-01-16T03:33:51.776Z,83.49
2024-01-16T03:36:21.113Z,83.48
2024-01-16T03:38:49.948Z,82.89
2024-01-16T03:41:19.166Z,83.23
2024-01-16T03:43:47.937Z,82.65
2024-01-16T03:46:17.939Z,83.15
2024-01-16T03:48:48.219Z,82.48
2024-01-16T03:51:19.040Z,83.39
2024-01-16T03:53:48.054Z,82.53
2024-01-16T03:56:18.221Z,83.15
2024-01-16T03:58:47.029Z,83.04
2024-01-16T04:01:16.886Z,82.37
2024-01-16T04:03:45.999Z,83.10
2024-01-16T04:06:20.524Z,83.03
2024-01-16T04:08:49.391Z,82.67
2024-01-16T04:11:18.757Z,83.13
2024-01-16T04:13:47.553Z,82.59
2024-01-16T04:16:16.580Z,83.18
2024-01-16T04:18:45.784Z,83.14
2024-01-16T04:21:17.423Z,82.32
2024-01-16T04:23:49.081Z,82.61
2024-01-16T04:26:18.366Z,82.48
2024-01-16T04:28:47.940Z,81.97
2024-01-16T04:31:18.679Z,81.86
2024-01-16T04:33:48.463Z,82.38
2024-01-16T04:36:18.456Z,82.37
2024-01-16T04:38:47.381Z,82.47
2024-01-16T04:41:20.132Z,81.88
2024-01-16T04:43:49.908Z,82.64
2024-01-16T04:46:19.029Z,81.62
2024-01-16T04:48:47.957Z,81.97
2024-01-16T04:51:17.010Z,81.63
2024-01-16T04:53:45.861Z,82.06
2024-01-16T04:56:15.053Z,80.91
2024-01-16T04:58:45.412Z,80.90
2024-01-16T05:01:14.869Z,80.91
2024-01-16T05:03:43.783Z,81.24
2024-01-16T05:06:16.680Z,80.72
2024-01-16T05:08:45.545Z,80.64
2024-01-16T05:11:14.794Z,80.94
2024-01-16T05:13:45.564Z,80.68
2024-01-16T05:16:15.148Z,80.43
2024-01-16T05:18:44.380Z,80.58
2024-01-16T05:21:13.902Z,80.15
2024-01-16T05:23:42.588Z,80.07
2024-01-16T05:26:11.709Z,80.20
2024-01-16T05:28:41.383Z,79.89
2024-01-16T05:31:11.913Z,79.82
2024-01-16T05:33:40.888Z,79.32
2024-01-16T05:36:11.137Z,79.21
2024-01-16T05:38:40.095Z,78.52
2024-01-16T05:41:09.338Z,78.13
2024-01-16T05:43:38.123Z,77.57
2024-01-16T05:46:07.901Z,77.34
2024-01-16T05:48:39.744Z,77.35
2024-01-16T05:51:09.000Z,77.55
2024-01-16T05:53:37.726Z,76.37
2024-01-16T05:56:09.245Z,76.75
2024-01-16T05:58:40.205Z,76.76
2024-01-16T06:01:09.460Z,75.84
2024-01-16T06:03:39.740Z,75.17
2024-01-16T06:06:09.499Z,75.34
2024-01-16T06:08:38.399Z,74.74
2024-01-16T06:11:07.522Z,74.90
2024-01-16T06:13:36.327Z,75.23
2024-01-16T06:16:05.773Z,74.71
2024-01-16T06:18:35.012Z,75.16
2024-01-16T06:21:07.481Z,74.73
2024-01-16T06:23:36.180Z,74.59
2024-01-16T06:26:05.310Z,75.38
2024-01-16T06:28:34.095Z,75.55
2024-01-16T06:31:03.255Z,74.73
2024-01-16T06:33:32.344Z,74.47
2024-01-16T06:36:01.756Z,74.24
2024-01-16T06:38:32.083Z,74.45
2024-01-16T06:41:01.882Z,74.51
2024-01-16T06:43:30.916Z,75.40
2024-01-16T06:46:00.236Z,74.74
2024-01-16T06:48:29.131Z,75.31
2024-01-16T06:50:58.388Z,74.54
2024-01-16T06:53:31.063Z,74.90
2024-01-16T06:56:02.070Z,74.92
2024-01-16T06:58:30.881Z,75.00
2024-01-16T07:01:01.483Z,74.61
2024-01-16T07:03:31.484Z,75.64
2024-01-16T07:06:00.886Z,75.30
2024-01-16T07:08:29.780Z,75.36
2024-01-16T07:10:59.374Z,74.85
2024-01-16T07:13:29.541Z,75.11
2024-01-16T07:15:58.788Z,74.69
2024-01-16T07:18:29.306Z,75.15
2024-01-16T07:20:58.436Z,75.12
2024-01-16T07:23:27.330Z,75.31
2024-01-16T07:25:56.519Z,75.29
2024-01-16T07:28:25.440Z,75.26
2024-01-16T07:30:56.678Z,75.05
2024-01-16T07:33:25.704Z,75.42
2024-01-16T07:35:54.974Z,75.24
2024-01-16T07:38:23.767Z,75.73
2024-01-16T07:40:52.976Z,75.45
2024-01-16T07:43:21.840Z,75.00
2024-01-16T07:45:50.772Z,75.73
2024-01-16T07:48:21.092Z,75.71
2024-01-16T07:50:50.331Z,74.73
2024-01-16T07:53:19.359Z,75.19
2024-01-16T07:55:48.587Z,74.94
2024-01-16T07:58:17.552Z,74.29
2024-01-16T08:00:46.728Z,74.20
2024-01-16T08:03:16.254Z,74.37
2024-01-16T08:05:46.932Z,74.35
2024-01-16T08:08:15.807Z,74.37
2024-01-16T08:10:45.444Z,73.79
2024-01-16T08:13:14.417Z,73.52
2024-01-16T08:15:43.773Z,73.76
2024-01-16T08:18:12.715Z,73.83
2024-01-16T08:20:42.998Z,73.71
2024-01-16T08:23:13.667Z,73.75
2024-01-16T08:25:42.920Z,73.94
2024-01-16T08:28:12.028Z,72.69
2024-01-16T08:30:41.138Z,72.57
2024-01-16T08:33:10.296Z,72.81
2024-01-16T08:35:40.122Z,72.90
2024-01-16T08:38:09.004Z,72.94
2024-01-16T08:40:39.540Z,72.80
2024-01-16T08:43:08.300Z,71.51
2024-01-16T08:45:37.339Z,71.52
2024-01-16T08:48:06.602Z,71.42
2024-01-16T08:50:35.914Z,71.31
2024-01-16T08:53:04.978Z,70.82
2024-01-16T08:55:34.115Z,70.72
2024-01-16T08:58:04.298Z,70.39
2024-01-16T09:00:34.636Z,69.36
2024-01-16T09:03:05.402Z,69.21
2024-01-16T09:05:37.765Z,69.37
2024-01-16T09:08:08.050Z,69.55
2024-01-16T09:10:38.141Z,69.09
2024-01-16T09:13:08.430Z,69.30
2024-01-16T09:15:37.679Z,70.12
2024-01-16T09:18:07.226Z,69.58
2024-01-16T09:20:36.461Z,69.58
2024-01-16T09:23:05.734Z,69.50
2024-01-16T09:25:34.700Z,69.10
2024-01-16T09:28:07.690Z,68.20
2024-01-16T09:30:38.240Z,67.73
2024-01-16T09:33:08.462Z,67.71
2024-01-16T09:35:37.830Z,68.25
2024-01-16T09:38:07.151Z,67.65
2024-01-16T09:40:36.569Z,67.46
2024-01-16T09:43:06.505Z,66.17
2024-01-16T09:45:36.664Z,65.25
2024-01-16T09:48:09.223Z,64.07
2024-01-16T09:50:39.061Z,64.04
2024-01-16T09:53:08.067Z,63.99
2024-01-16T09:55:37.142Z,64.62
2024-01-16T09:58:07.932Z,64.72
2024-01-16T10:00:37.128Z,64.52
2024-01-16T10:03:07.612Z,63.22
2024-01-16T10:05:37.254Z,63.78
2024-01-16T10:08:06.138Z,64.46
2024-01-16T10:10:43.433Z,63.72
2024-01-16T10:13:16.998Z,63.47
2024-01-16T10:15:46.305Z,64.62
2024-01-16T10:18:26.655Z,64.40
2024-01-16T10:20:56.202Z,63.39
2024-01-16T10:23:26.021Z,63.46
2024-01-16T10:26:07.990Z,64.51
2024-01-16T10:28:37.080Z,63.89
2024-01-16T10:31:07.307Z,62.76
2024-01-16T10:33:39.215Z,63.31
2024-01-16T10:36:12.667Z,63.28
2024-01-16T10:38:42.205Z,62.49
2024-01-16T10:41:12.189Z,61.81
2024-01-16T10:43:41.269Z,62.59
2024-01-16T10:46:12.688Z,62.18
2024-01-16T10:48:44.061Z,62.11
2024-01-16T10:51:15.683Z,61.83
2024-01-16T10:53:45.694Z,61.65
2024-01-16T10:56:16.916Z,60.12
2024-01-16T10:58:45.766Z,59.64
2024-01-16T11:01:16.398Z,60.13
2024-01-16T11:03:48.875Z,60.77
2024-01-16T11:06:20.070Z,60.27
2024-01-16T11:08:49.808Z,60.71
2024-01-16T11:11:19.523Z,60.96
2024-01-16T11:13:48.638Z,62.05
2024-01-16T11:16:18.034Z,61.40
2024-01-16T11:18:48.250Z,61.29
2024-01-16T11:21:21.121Z,61.29
2024-01-16T11:23:50.074Z,62.28
2024-01-16T11:26:26.741Z,62.07
2024-01-16T11:28:57.720Z,62.21
2024-01-16T11:31:30.661Z,61.70
2024-01-16T11:34:02.573Z,62.08
2024-01-16T11:36:45.182Z,62.10
2024-01-16T11:39:19.315Z,61.60
2024-01-16T11:41:53.108Z,61.21
2024-01-16T11:44:42.552Z,61.39
2024-01-16T11:47:17.627Z,61.57
2024-01-16T11:49:48.324Z,61.92
2024-01-16T11:52:37.827Z,62.12
2024-01-16T11:55:26.889Z,62.28
2024-01-16T11:58:04.009Z,62.47
2024-01-16T12:00:34.253Z,63.35
2024-01-16T12:03:04.526Z,63.66
2024-01-16T12:05:35.478Z,64.45
2024-01-16T12:08:05.304Z,64.49
2024-01-16T12:10:35.285Z,64.20
2024-01-16T12:13:05.813Z,66.10
2024-01-16T12:15:35.196Z,65.61
2024-01-16T12:18:05.122Z,66.22
2024-01-16T12:20:37.598Z,65.93
2024-01-16T12:23:07.728Z,66.97
2024-01-16T12:26:00.902Z,66.76
2024-01-16T12:28:32.511Z,67.32
2024-01-16T12:31:04.230Z,67.48
2024-01-16T12:33:34.030Z,67.22
2024-01-16T12:36:06.221Z,67.75
2024-01-16T12:38:37.353Z,68.49
2024-01-16T12:41:09.559Z,68.77
2024-01-16T12:43:40.011Z,68.99
2024-01-16T12:46:08.979Z,67.59
2024-01-16T12:48:41.579Z,67.53
2024-01-16T12:51:22.352Z,68.04
2024-01-16T12:53:51.785Z,68.46
2024-01-16T12:56:28.896Z,68.53
2024-01-16T12:59:10.505Z,67.95
2024-01-16T13:01:45.591Z,66.89
2024-01-16T13:04:20.659Z,67.67
2024-01-16T13:06:52.891Z,67.42
2024-01-16T13:09:26.056Z,66.59
2024-01-16T13:11:57.051Z,66.46
2024-01-16T13:14:28.500Z,66.45
2024-01-16T13:17:02.257Z,65.89
2024-01-16T13:19:34.985Z,65.45
2024-01-16T13:22:05.665Z,65.38
2024-01-16T13:24:46.947Z,64.62
2024-01-16T13:27:23.451Z,64.66
2024-01-16T13:29:53.079Z,65.06
2024-01-16T13:32:24.816Z,64.58
2024-01-16T13:34:54.428Z,64.79
2024-01-16T13:37:26.673Z,65.51
2024-01-16T13:39:57.455Z,65.10
2024-01-16T13:42:26.435Z,65.36
2024-01-16T13:44:56.692Z,65.51
2024-01-16T13:47:27.463Z,64.37
2024-01-16T13:49:57.842Z,65.77
2024-01-16T13:52:30.370Z,66.36
2024-01-16T13:55:03.387Z,66.24
2024-01-16T13:57:34.258Z,66.13
2024-01-16T14:00:06.965Z,65.47
2024-01-16T14:02:43.186Z,66.21
2024-01-16T14:05:17.084Z,67.12
2024-01-16T14:07:48.630Z,66.47
2024-01-16T14:10:21.744Z,67.44
2024-01-16T14:12:52.576Z,67.08
2024-01-16T14:15:27.300Z,67.87
2024-01-16T14:17:57.729Z,69.52
2024-01-16T14:20:29.020Z,68.76
2024-01-16T14:23:02.575Z,69.11
2024-01-16T14:25:34.715Z,70.52
2024-01-16T14:28:05.846Z,70.67
2024-01-16T14:30:36.023Z,73.44
2024-01-16T14:33:08.866Z,72.74
2024-01-16T14:35:39.461Z,72.96
2024-01-16T14:38:10.241Z,73.14
2024-01-16T14:40:42.359Z,74.45
2024-01-16T14:43:14.838Z,75.74
2024-01-16T14:45:47.531Z,76.83
2024-01-16T14:48:18.373Z,77.52
2024-01-16T14:50:50.660Z,78.41
2024-01-16T14:53:21.897Z,78.41
2024-01-16T14:55:54.416Z,78.70
2024-01-16T14:58:24.447Z,79.01
2024-01-16T15:00:55.132Z,79.63
2024-01-16T15:03:25.131Z,81.76
2024-01-16T15:05:56.462Z,82.30
2024-01-16T15:08:27.945Z,82.45
2024-01-16T15:10:57.205Z,82.50
2024-01-16T15:13:27.067Z,82.02
2024-01-16T15:15:58.876Z,82.39
2024-01-16T15:18:29.205Z,82.74
2024-01-16T15:20:59.723Z,82.70
2024-01-16T15:23:31.119Z,83.18
2024-01-16T15:26:09.109Z,83.00
2024-01-16T15:28:41.230Z,83.63
2024-01-16T15:31:14.812Z,83.19
2024-01-16T15:33:44.255Z,83.59
2024-01-16T15:36:16.862Z,84.38
2024-01-16T15:38:50.059Z,85.16
2024-01-16T15:41:19.770Z,84.89
2024-01-16T15:43:49.212Z,86.40
2024-01-16T15:46:22.913Z,87.40
2024-01-16T15:48:53.416Z,87.87
2024-01-16T15:51:23.288Z,88.43
2024-01-16T15:53:54.064Z,88.71
2024-01-16T15:56:25.757Z,89.44
2024-01-16T15:58:56.000Z,90.64
2024-01-16T16:01:27.551Z,91.14
2024-01-16T16:03:56.597Z,91.03
2024-01-16T16:06:25.918Z,91.31
2024-01-16T16:08:56.663Z,91.28
2024-01-16T16:11:26.179Z,91.74
2024-01-16T16:13:55.047Z,92.17
2024-01-16T16:16:24.229Z,92.73
2024-01-16T16:18:53.201Z,92.64
2024-01-16T16:21:22.520Z,93.71
2024-01-16T16:23:51.664Z,93.66
2024-01-16T16:26:31.204Z,93.16
2024-01-16T16:29:00.967Z,94.50
2024-01-16T16:31:31.749Z,94.90
2024-01-16T16:34:01.545Z,95.74
2024-01-16T16:36:31.121Z,96.10
2024-01-16T16:39:00.686Z,96.23
2024-01-16T16:41:31.255Z,97.08
2024-01-16T16:44:00.623Z,97.55
2024-01-16T16:46:30.144Z,98.21
2024-01-16T16:48:59.408Z,97.41
2024-01-16T16:51:29.650Z,97.76
2024-01-16T16:53:58.729Z,97.57
2024-01-16T16:56:27.974Z,98.33
2024-01-16T16:58:58.233Z,98.27
2024-01-16T17:01:29.611Z,97.53
2024-01-16T17:03:58.488Z,97.51
2024-01-16T17:06:27.998Z,98.02
2024-01-16T17:08:57.077Z,98.56
2024-01-16T17:11:28.811Z,99.30
2024-01-16T17:13:59.117Z,99.67
2024-01-16T17:16:29.694Z,100.00
2024-01-16T17:18:58.784Z,100.00
2024-01-16T17:21:28.168Z,100.00
2024-01-16T17:23:58.133Z,100.00
2024-01-16T17:26:29.622Z,100.00
2024-01-16T17:29:00.823Z,100.00
2024-01-16T17:31:30.260Z,100.00
2024-01-16T17:33:59.472Z,100.00
2024-01-16T17:36:30.126Z,100.00
2024-01-16T17:39:01.590Z,100.00
2024-01-16T17:41:32.275Z,100.00
2024-01-16T17:44:02.652Z,100.00
2024-01-16T17:46:32.122Z,100.00
2024-01-16T17:49:01.232Z,100.00
2024-01-16T17:51:31.677Z,100.00
2024-01-16T17:54:28.697Z,100.00
2024-01-16T17:57:02.762Z,100.00
2024-01-16T17:59:35.057Z,100.00
2024-01-16T18:02:06.571Z,100.00
2024-01-16T18:04:35.781Z,100.00
2024-01-16T18:07:05.071Z,100.00
2024-01-16T18:09:35.249Z,100.00
2024-01-16T18:12:04.560Z,100.00
2024-01-16T18:14:34.942Z,100.00
2024-01-16T18:17:05.884Z,100.00
2024-01-16T18:19:37.224Z,100.00
2024-01-16T18:22:07.253Z,100.00
2024-01-16T18:24:38.525Z,100.00
2024-01-16T18:27:09.019Z,100.00
2024-01-16T18:29:39.377Z,100.00
2024-01-16T18:32:09.467Z,100.00
2024-01-16T18:34:38.755Z,100.00
2024-01-16T18:37:08.845Z,100.00
2024-01-16T18:39:37.592Z,100.00
2024-01-16T18:42:07.558Z,100.00
2024-01-16T18:44:36.441Z,100.00
2024-01-16T18:47:07.113Z,100.00
2024-01-16T18:49:37.705Z,100.00
2024-01-16T18:52:09.306Z,100.00
2024-01-16T18:54:46.549Z,100.00
2024-01-16T18:57:21.549Z,100.00
2024-01-16T18:59:50.780Z,100.00
2024-01-16T19:02:22.809Z,100.00
2024-01-16T19:04:51.858Z,100.00
2024-01-16T19:07:21.336Z,100.00
2024-01-16T19:09:50.162Z,100.00
2024-01-16T19:12:20.035Z,100.00
2024-01-16T19:14:49.247Z,100.00
2024-01-16T19:17:19.781Z,100.00
2024-01-16T19:19:50.224Z,100.00
2024-01-16T19:22:21.407Z,100.00
2024-01-16T19:24:51.329Z,100.00
2024-01-16T19:27:22.294Z,100.00
2024-01-16T19:29:51.899Z,100.00
2024-01-16T19:32:21.348Z,100.00
2024-01-16T19:34:51.871Z,100.00
2024-01-16T19:37:21.449Z,100.00
2024-01-16T19:39:50.649Z,100.00
2024-01-16T19:42:20.293Z,100.00
2024-01-16T19:44:50.440Z,100.00
2024-01-16T19:47:20.078Z,100.00
2024-01-16T19:49:48.948Z,100.00
2024-01-16T19:52:20.122Z,100.00
2024-01-16T19:54:49.079Z,100.00
2024-01-16T19:57:18.591Z,100.00
2024-01-16T19:59:47.471Z,100.00
2024-01-16T20:02:17.785Z,100.00
2024-01-16T20:04:47.636Z,100.00
2024-01-16T20:07:16.849Z,100.00
2024-01-16T20:09:47.624Z,100.00
2024-01-16T20:12:20.512Z,100.00
2024-01-16T20:14:55.013Z,100.00
2024-01-16T20:17:24.683Z,100.00
2024-01-16T20:19:53.762Z,100.00
2024-01-16T20:22:23.561Z,100.00
2024-01-16T20:24:55.472Z,100.00
2024-01-16T20:27:24.923Z,100.00
2024-01-16T20:29:53.950Z,100.00
2024-01-16T20:32:25.032Z,100.00
2024-01-16T20:34:54.628Z,100.00
2024-01-16T20:37:23.945Z,100.00
2024-01-16T20:39:55.241Z,100.00
2024-01-16T20:42:24.528Z,100.00
2024-01-16T20:44:54.263Z,100.00
2024-01-16T20:47:27.239Z,100.00
2024-01-16T20:49:56.513Z,100.00
2024-01-16T20:52:25.982Z,100.00
2024-01-16T20:54:56.841Z,100.00
2024-01-16T20:57:26.567Z,100.00
2024-01-16T20:59:56.948Z,100.00
2024-01-16T21:02:26.456Z,100.00
2024-01-16T21:04:55.469Z,100.00
2024-01-16T21:07:25.424Z,100.00
2024-01-16T21:09:56.104Z,100.00
2024-01-16T21:12:25.378Z,100.00
2024-01-16T21:14:55.112Z,100.00
2024-01-16T21:17:25.094Z,100.00
2024-01-16T21:19:54.316Z,100.00
2024-01-16T21:22:32.980Z,100.00
2024-01-16T21:25:09.035Z,100.00
2024-01-16T21:27:39.104Z,100.00
2024-01-16T21:30:09.429Z,100.00
2024-01-16T21:32:42.493Z,100.00
2024-01-16T21:35:12.100Z,100.00
2024-01-16T21:37:41.687Z,100.00
2024-01-16T21:40:12.443Z,100.00
2024-01-16T21:42:42.199Z,100.00
2024-01-16T21:45:11.354Z,100.00
2024-01-16T21:47:41.277Z,100.00
2024-01-16T21:52:42.638Z,100.00
2024-01-16T21:55:13.986Z,100.00
2024-01-16T21:57:43.992Z,100.00
2024-01-16T22:00:13.518Z,100.00
2024-01-16T22:02:43.357Z,100.00
2024-01-16T22:05:12.600Z,100.00
2024-01-16T22:07:42.267Z,100.00
2024-01-16T22:10:12.431Z,100.00
2024-01-16T22:12:41.587Z,100.00
2024-01-16T22:15:12.942Z,100.00
2024-01-16T22:17:43.914Z,100.00
2024-01-16T22:20:12.901Z,100.00
2024-01-16T22:22:42.044Z,100.00
2024-01-16T22:25:12.347Z,100.00
2024-01-16T22:27:41.492Z,100.00
2024-01-16T22:30:12.061Z,100.00
2024-01-16T22:32:41.498Z,100.00
2024-01-16T22:35:11.939Z,100.00
2024-01-16T22:37:47.822Z,100.00
2024-01-16T22:40:18.454Z,100.00
2024-01-16T22:42:47.848Z,100.00
2024-01-16T22:45:18.267Z,100.00
2024-01-16T22:47:47.475Z,100.00
2024-01-16T22:50:16.255Z,100.00
2024-01-16T22:52:45.320Z,100.00
2024-01-16T22:55:14.351Z,100.00
2024-01-16T22:57:44.868Z,100.00
2024-01-16T23:00:21.737Z,100.00
2024-01-16T23:02:51.614Z,100.00
2024-01-16T23:05:21.342Z,100.00
2024-01-16T23:07:50.831Z,100.00
2024-01-16T23:10:21.083Z,100.00
2024-01-16T23:12:51.507Z,100.00
2024-01-16T23:15:20.330Z,100.00
2024-01-16T23:17:49.520Z,100.00
2024-01-16T23:20:18.687Z,100.00
2024-01-16T23:22:48.108Z,100.00
2024-01-16T23:25:17.300Z,100.00
2024-01-16T23:27:50.337Z,100.00
2024-01-16T23:30:20.597Z,100.00
2024-01-16T23:32:49.790Z,100.00
2024-01-16T23:35:18.640Z,100.00
2024-01-16T23:37:49.449Z,100.00
2024-01-16T23:40:19.565Z,100.00
2024-01-16T23:42:48.688Z,100.00
2024-01-16T23:45:24.402Z,100.00
2024-01-16T23:48:01.131Z,100.00
2024-01-16T23:50:30.292Z,100.00
2024-01-16T23:53:00.188Z,100.00
2024-01-16T23:55:29.018Z,100.00
2024-01-16T23:57:59.154Z,100.00
